KSLK

Adirondack Regional Airport

Airport
ICAO code
KSLK
IATA Code
SLK
Summary
ICAO Region
NAM
ICAO Territory
Location

Saranac Lake, New York

Serving
Adirondacks
Elevation
1663 ft
Coordinates
44° 22' 51" N , 74° 12' 18" W
KCC
Airport CFIT
Altimeter Temperature Error Correction
Airport GND
Aircraft Ground De/Anti Icing
Airport RE
Landing on Contaminated Runways
Metar
KSLK 221651Z AUTO 24006KT 10SM OVC085 03/M03 A2972 RMK AO2 SLP080 T00281033

Description

Adirondack Regional Airport is a public use airport located 5 nm northwest of the central business district of Saranac Lake, a town in Franklin County, New York.

Runways

Designator Length Width Surface Rops
9/27 1219 30 ASP Yes/Yes
5/23 2003 46 ASP Yes/Yes

Airport map

Aerial View

SKYbrary Partners:

Safety knowledge contributed by: